sensor_id;sensor_type;location;lat;lon;timestamp;temperature;humidity
34522;DHT22;25561;48.888;8.736;2023-03-08T06:49:56;4.20;99.90
34522;DHT22;25561;48.888;8.736;2023-03-08T06:52:58;4.50;99.90
34522;DHT22;25561;48.888;8.736;2023-03-08T06:56:01;4.70;99.90
34522;DHT22;25561;48.888;8.736;2023-03-08T06:59:04;5.00;99.90
34522;DHT22;25561;48.888;8.736;2023-03-08T07:02:06;5.10;99.90
34522;DHT22;25561;48.888;8.736;2023-03-08T07:05:08;5.20;99.90
34522;DHT22;25561;48.888;8.736;2023-03-08T07:08:10;5.00;99.90
34522;DHT22;25561;48.888;8.736;2023-03-08T07:11:13;4.80;99.90
34522;DHT22;25561;48.888;8.736;2023-03-08T07:14:15;5.00;99.90
34522;DHT22;25561;48.888;8.736;2023-03-08T07:17:18;5.00;99.90
34522;DHT22;25561;48.888;8.736;2023-03-08T07:20:22;5.00;99.90
34522;DHT22;25561;48.888;8.736;2023-03-08T07:23:24;5.00;99.90
34522;DHT22;25561;48.888;8.736;2023-03-08T07:26:27;5.10;99.90
34522;DHT22;25561;48.888;8.736;2023-03-08T07:29:29;5.00;99.90
34522;DHT22;25561;48.888;8.736;2023-03-08T07:32:31;4.90;99.90
34522;DHT22;25561;48.888;8.736;2023-03-08T07:35:36;4.70;99.90
34522;DHT22;25561;48.888;8.736;2023-03-08T07:38:41;4.40;99.90
34522;DHT22;25561;48.888;8.736;2023-03-08T07:41:44;4.50;99.90
34522;DHT22;25561;48.888;8.736;2023-03-08T07:44:48;4.40;99.90
34522;DHT22;25561;48.888;8.736;2023-03-08T07:47:50;4.30;99.90
34522;DHT22;25561;48.888;8.736;2023-03-08T07:50:58;4.20;99.90
34522;DHT22;25561;48.888;8.736;2023-03-08T07:54:00;4.00;99.90
34522;DHT22;25561;48.888;8.736;2023-03-08T07:57:03;3.90;99.90
34522;DHT22;25561;48.888;8.736;2023-03-08T08:00:06;3.90;99.90
34522;DHT22;25561;48.888;8.736;2023-03-08T08:03:09;3.90;99.90
34522;DHT22;25561;48.888;8.736;2023-03-08T08:06:12;3.80;99.90
34522;DHT22;25561;48.888;8.736;2023-03-08T08:09:14;3.70;99.90
34522;DHT22;25561;48.888;8.736;2023-03-08T08:12:18;3.60;99.90
34522;DHT22;25561;48.888;8.736;2023-03-08T08:15:20;3.70;99.90
34522;DHT22;25561;48.888;8.736;2023-03-08T08:18:24;3.70;99.90
34522;DHT22;25561;48.888;8.736;2023-03-08T08:21:26;3.60;99.90
34522;DHT22;25561;48.888;8.736;2023-03-08T08:24:28;3.50;99.90
34522;DHT22;25561;48.888;8.736;2023-03-08T08:27:31;3.50;99.90
34522;DHT22;25561;48.888;8.736;2023-03-08T08:30:34;3.40;99.90
34522;DHT22;25561;48.888;8.736;2023-03-08T08:33:36;3.50;99.90
34522;DHT22;25561;48.888;8.736;2023-03-08T08:36:38;3.40;99.90
34522;DHT22;25561;48.888;8.736;2023-03-08T08:39:39;3.40;99.90
34522;DHT22;25561;48.888;8.736;2023-03-08T08:42:41;3.30;99.90
34522;DHT22;25561;48.888;8.736;2023-03-08T08:45:45;3.50;99.90
34522;DHT22;25561;48.888;8.736;2023-03-08T08:48:47;3.70;99.90
34522;DHT22;25561;48.888;8.736;2023-03-08T08:51:49;3.70;99.90
34522;DHT22;25561;48.888;8.736;2023-03-08T08:54:55;3.80;99.90
34522;DHT22;25561;48.888;8.736;2023-03-08T08:58:01;3.80;99.90
34522;DHT22;25561;48.888;8.736;2023-03-08T09:01:11;3.70;99.90
34522;DHT22;25561;48.888;8.736;2023-03-08T09:04:16;3.70;99.90
34522;DHT22;25561;48.888;8.736;2023-03-08T09:07:25;3.90;99.90
34522;DHT22;25561;48.888;8.736;2023-03-08T09:10:31;4.10;99.90
34522;DHT22;25561;48.888;8.736;2023-03-08T09:13:34;4.10;99.90
34522;DHT22;25561;48.888;8.736;2023-03-08T09:16:39;3.80;99.90
34522;DHT22;25561;48.888;8.736;2023-03-08T09:19:42;3.90;99.90
34522;DHT22;25561;48.888;8.736;2023-03-08T09:22:46;3.80;99.90
34522;DHT22;25561;48.888;8.736;2023-03-08T09:25:57;3.90;99.90
34522;DHT22;25561;48.888;8.736;2023-03-08T09:29:04;4.00;99.90
34522;DHT22;25561;48.888;8.736;2023-03-08T09:32:09;4.00;99.90
34522;DHT22;25561;48.888;8.736;2023-03-08T09:35:12;4.20;99.90
34522;DHT22;25561;48.888;8.736;2023-03-08T09:38:17;4.60;99.90
34522;DHT22;25561;48.888;8.736;2023-03-08T09:41:23;4.60;99.90
34522;DHT22;25561;48.888;8.736;2023-03-08T09:44:50;4.90;99.90
34522;DHT22;25561;48.888;8.736;2023-03-08T09:48:23;4.90;99.90
34522;DHT22;25561;48.888;8.736;2023-03-08T09:51:34;4.90;99.90
34522;DHT22;25561;48.888;8.736;2023-03-08T09:54:38;5.00;99.90
34522;DHT22;25561;48.888;8.736;2023-03-08T09:57:50;5.20;99.90
34522;DHT22;25561;48.888;8.736;2023-03-08T10:01:00;5.50;99.90
34522;DHT22;25561;48.888;8.736;2023-03-08T10:04:40;5.60;99.90
34522;DHT22;25561;48.888;8.736;2023-03-08T10:11:09;5.80;99.90
34522;DHT22;25561;48.888;8.736;2023-03-08T10:14:26;6.00;99.90
34522;DHT22;25561;48.888;8.736;2023-03-08T10:20:51;6.50;99.90
34522;DHT22;25561;48.888;8.736;2023-03-08T10:27:24;7.20;99.90
34522;DHT22;25561;48.888;8.736;2023-03-08T10:30:39;7.60;99.90
34522;DHT22;25561;48.888;8.736;2023-03-08T10:33:42;7.70;99.90
34522;DHT22;25561;48.888;8.736;2023-03-08T10:39:52;7.90;99.90
34522;DHT22;25561;48.888;8.736;2023-03-08T10:43:02;7.60;99.90
34522;DHT22;25561;48.888;8.736;2023-03-08T10:46:14;7.80;99.90
34522;DHT22;25561;48.888;8.736;2023-03-08T10:49:18;7.90;99.90
34522;DHT22;25561;48.888;8.736;2023-03-08T10:52:25;7.90;99.90
34522;DHT22;25561;48.888;8.736;2023-03-08T10:55:29;8.00;99.90
34522;DHT22;25561;48.888;8.736;2023-03-08T10:58:39;8.20;99.90
34522;DHT22;25561;48.888;8.736;2023-03-08T11:01:53;8.60;99.90
34522;DHT22;25561;48.888;8.736;2023-03-08T11:04:57;9.20;99.90
34522;DHT22;25561;48.888;8.736;2023-03-08T11:08:00;9.30;99.90
34522;DHT22;25561;48.888;8.736;2023-03-08T11:11:07;9.30;99.90
34522;DHT22;25561;48.888;8.736;2023-03-08T11:14:10;9.00;99.90
34522;DHT22;25561;48.888;8.736;2023-03-08T11:20:55;9.00;99.90
34522;DHT22;25561;48.888;8.736;2023-03-08T11:27:56;9.40;99.90
34522;DHT22;25561;48.888;8.736;2023-03-08T11:31:16;9.50;99.90
34522;DHT22;25561;48.888;8.736;2023-03-08T11:34:43;9.60;99.90
34522;DHT22;25561;48.888;8.736;2023-03-08T11:38:01;9.70;99.90
34522;DHT22;25561;48.888;8.736;2023-03-08T11:58:37;9.90;99.90
34522;DHT22;25561;48.888;8.736;2023-03-08T12:02:19;9.90;99.90
34522;DHT22;25561;48.888;8.736;2023-03-08T12:05:34;10.30;99.90
34522;DHT22;25561;48.888;8.736;2023-03-08T12:08:43;10.40;99.90
34522;DHT22;25561;48.888;8.736;2023-03-08T12:11:53;10.30;99.90
34522;DHT22;25561;48.888;8.736;2023-03-08T12:14:59;10.40;99.90
34522;DHT22;25561;48.888;8.736;2023-03-08T12:18:16;10.50;99.90
34522;DHT22;25561;48.888;8.736;2023-03-08T12:21:40;10.40;99.90
34522;DHT22;25561;48.888;8.736;2023-03-08T12:25:16;10.50;99.90
34522;DHT22;25561;48.888;8.736;2023-03-08T12:28:29;10.70;99.90
34522;DHT22;25561;48.888;8.736;2023-03-08T12:31:40;11.00;99.90
34522;DHT22;25561;48.888;8.736;2023-03-08T12:34:44;11.10;99.90
34522;DHT22;25561;48.888;8.736;2023-03-08T12:40:59;10.80;99.90
34522;DHT22;25561;48.888;8.736;2023-03-08T12:44:26;10.80;99.90
34522;DHT22;25561;48.888;8.736;2023-03-08T12:47:28;10.80;99.90
34522;DHT22;25561;48.888;8.736;2023-03-08T12:50:41;10.80;99.90
34522;DHT22;25561;48.888;8.736;2023-03-08T12:56:53;10.90;99.90
34522;DHT22;25561;48.888;8.736;2023-03-08T13:00:45;11.10;99.90
34522;DHT22;25561;48.888;8.736;2023-03-08T13:03:39;11.10;99.90
34522;DHT22;25561;48.888;8.736;2023-03-08T13:09:58;11.70;99.90
34522;DHT22;25561;48.888;8.736;2023-03-08T13:19:34;11.80;99.90
34522;DHT22;25561;48.888;8.736;2023-03-08T13:22:49;11.80;99.90
34522;DHT22;25561;48.888;8.736;2023-03-08T13:29:00;12.00;99.90
34522;DHT22;25561;48.888;8.736;2023-03-08T13:32:22;11.80;99.90
34522;DHT22;25561;48.888;8.736;2023-03-08T13:35:25;11.80;99.90
34522;DHT22;25561;48.888;8.736;2023-03-08T13:38:38;11.70;99.90
34522;DHT22;25561;48.888;8.736;2023-03-08T13:41:42;11.40;99.90
34522;DHT22;25561;48.888;8.736;2023-03-08T13:44:45;11.00;99.90
34522;DHT22;25561;48.888;8.736;2023-03-08T13:47:47;10.80;99.90
34522;DHT22;25561;48.888;8.736;2023-03-08T13:50:51;10.60;99.90
34522;DHT22;25561;48.888;8.736;2023-03-08T13:53:54;10.50;99.90
34522;DHT22;25561;48.888;8.736;2023-03-08T13:56:57;10.40;99.90
34522;DHT22;25561;48.888;8.736;2023-03-08T14:00:22;10.40;99.90
34522;DHT22;25561;48.888;8.736;2023-03-08T14:03:27;10.50;99.90
34522;DHT22;25561;48.888;8.736;2023-03-08T14:06:30;10.40;99.90
34522;DHT22;25561;48.888;8.736;2023-03-08T14:09:34;10.50;99.90
34522;DHT22;25561;48.888;8.736;2023-03-08T14:12:36;10.40;99.90
34522;DHT22;25561;48.888;8.736;2023-03-08T14:15:38;10.40;99.90
34522;DHT22;25561;48.888;8.736;2023-03-08T14:18:41;10.40;99.90
34522;DHT22;25561;48.888;8.736;2023-03-08T14:22:00;10.40;99.90
34522;DHT22;25561;48.888;8.736;2023-03-08T14:25:03;10.40;99.90
34522;DHT22;25561;48.888;8.736;2023-03-08T14:28:32;10.30;99.90
34522;DHT22;25561;48.888;8.736;2023-03-08T14:31:34;10.40;99.90
34522;DHT22;25561;48.888;8.736;2023-03-08T14:34:43;10.20;99.90
34522;DHT22;25561;48.888;8.736;2023-03-08T14:37:45;10.30;99.90
34522;DHT22;25561;48.888;8.736;2023-03-08T14:40:49;10.20;99.90
34522;DHT22;25561;48.888;8.736;2023-03-08T14:43:51;10.20;99.90
34522;DHT22;25561;48.888;8.736;2023-03-08T14:46:55;10.10;99.90
34522;DHT22;25561;48.888;8.736;2023-03-08T14:53:24;10.00;99.90
34522;DHT22;25561;48.888;8.736;2023-03-08T14:56:28;10.10;99.90
34522;DHT22;25561;48.888;8.736;2023-03-08T14:59:30;10.30;99.90
34522;DHT22;25561;48.888;8.736;2023-03-08T15:02:32;10.30;99.90
34522;DHT22;25561;48.888;8.736;2023-03-08T15:05:34;10.40;99.90
34522;DHT22;25561;48.888;8.736;2023-03-08T15:08:37;10.50;99.90
34522;DHT22;25561;48.888;8.736;2023-03-08T15:11:38;10.70;99.90
34522;DHT22;25561;48.888;8.736;2023-03-08T15:14:40;10.80;99.90
34522;DHT22;25561;48.888;8.736;2023-03-08T15:17:42;11.00;99.90
34522;DHT22;25561;48.888;8.736;2023-03-08T15:20:46;11.10;99.90
34522;DHT22;25561;48.888;8.736;2023-03-08T15:23:50;11.20;99.90
34522;DHT22;25561;48.888;8.736;2023-03-08T15:26:52;11.40;99.90
34522;DHT22;25561;48.888;8.736;2023-03-08T15:29:56;11.40;99.90
34522;DHT22;25561;48.888;8.736;2023-03-08T15:32:58;11.50;99.90
34522;DHT22;25561;48.888;8.736;2023-03-08T15:36:00;11.30;99.90
34522;DHT22;25561;48.888;8.736;2023-03-08T15:39:02;11.20;99.90
34522;DHT22;25561;48.888;8.736;2023-03-08T15:42:05;10.90;99.90
34522;DHT22;25561;48.888;8.736;2023-03-08T15:45:07;11.00;99.90
34522;DHT22;25561;48.888;8.736;2023-03-08T15:48:17;11.10;99.90
34522;DHT22;25561;48.888;8.736;2023-03-08T15:51:21;11.00;99.90
34522;DHT22;25561;48.888;8.736;2023-03-08T15:54:23;11.00;99.90
34522;DHT22;25561;48.888;8.736;2023-03-08T15:57:24;11.10;99.90
34522;DHT22;25561;48.888;8.736;2023-03-08T16:00:27;11.10;99.90
34522;DHT22;25561;48.888;8.736;2023-03-08T16:03:29;11.10;99.90
34522;DHT22;25561;48.888;8.736;2023-03-08T16:06:32;11.00;99.90
34522;DHT22;25561;48.888;8.736;2023-03-08T16:09:33;10.80;99.90
34522;DHT22;25561;48.888;8.736;2023-03-08T16:12:35;10.80;99.90
34522;DHT22;25561;48.888;8.736;2023-03-08T16:15:39;10.80;99.90
34522;DHT22;25561;48.888;8.736;2023-03-08T16:18:42;10.90;99.90
34522;DHT22;25561;48.888;8.736;2023-03-08T16:21:45;10.80;99.90
34522;DHT22;25561;48.888;8.736;2023-03-08T16:24:47;10.90;99.90
34522;DHT22;25561;48.888;8.736;2023-03-08T16:27:49;10.80;99.90
34522;DHT22;25561;48.888;8.736;2023-03-08T16:30:50;10.70;99.90
34522;DHT22;25561;48.888;8.736;2023-03-08T16:33:52;10.70;99.90
34522;DHT22;25561;48.888;8.736;2023-03-08T16:36:54;10.50;99.90
34522;DHT22;25561;48.888;8.736;2023-03-08T16:39:56;10.50;99.90
34522;DHT22;25561;48.888;8.736;2023-03-08T16:43:02;10.50;99.90
34522;DHT22;25561;48.888;8.736;2023-03-08T16:46:04;10.50;99.90
34522;DHT22;25561;48.888;8.736;2023-03-08T16:49:06;10.40;99.90
34522;DHT22;25561;48.888;8.736;2023-03-08T16:52:07;10.40;99.90
34522;DHT22;25561;48.888;8.736;2023-03-08T16:55:09;10.30;99.90
34522;DHT22;25561;48.888;8.736;2023-03-08T16:58:13;10.30;99.90
